Time;durP1;ratioP1;P1;durP2;ratioP2;P2;SDS_P1;SDS_P2;PMS_P1;PMS_P2;Temp;Humidity;BMP_temperature;BMP_pressure;BME280_temperature;BME280_humidity;BME280_pressure;Samples;Min_cycle;Max_cycle;Signal;HPM_P1;HPM_P2
2022/08/17 00:00:12;;;;;;;6.30;3.40;;;;;;;18.85;50.67;99308.78;10399126;28;20128;-59
2022/08/17 00:05:51;;;;;;;6.25;3.20;;;;;;;19.17;50.41;99300.19;10398768;28;20068;-59
2022/08/17 00:10:54;;;;;;;4.82;3.28;;;;;;;19.34;50.15;99296.56;10398897;28;20142;-59
2022/08/17 00:16:01;;;;;;;7.05;3.22;;;;;;;19.42;49.94;99300.06;10398787;28;20080;-59
2022/08/17 00:21:06;;;;;;;5.13;3.40;;;;;;;19.45;49.78;99297.09;10398451;28;20172;-59
2022/08/17 00:26:11;;;;;;;5.25;3.80;;;;;;;19.23;50.16;99295.06;10398443;28;20507;-59
2022/08/17 00:31:14;;;;;;;5.30;3.60;;;;;;;19.10;50.71;99305.28;10398505;28;20099;-59
2022/08/17 00:36:17;;;;;;;6.10;3.60;;;;;;;19.05;50.52;99297.00;10397236;28;20148;-59
2022/08/17 00:41:22;;;;;;;6.95;4.38;;;;;;;18.94;50.96;99299.06;10398331;28;20132;-59
2022/08/17 00:46:29;;;;;;;6.25;3.33;;;;;;;18.99;51.03;99286.19;10397569;28;20502;-59
2022/08/17 00:51:43;;;;;;;8.60;4.05;;;;;;;19.00;51.18;99295.75;10397549;28;20077;-59
2022/08/17 00:56:52;;;;;;;5.20;3.90;;;;;;;18.94;51.12;99288.47;10397010;28;20101;-59
2022/08/17 01:01:54;;;;;;;6.70;3.78;;;;;;;18.59;51.47;99297.41;10396862;28;20161;-59
2022/08/17 01:06:59;;;;;;;6.00;3.88;;;;;;;18.43;52.48;99289.38;10396871;28;20098;-59
2022/08/17 01:12:01;;;;;;;6.78;4.20;;;;;;;18.39;52.64;99285.38;10396490;28;20081;-59
2022/08/17 01:17:04;;;;;;;7.63;3.92;;;;;;;18.21;52.60;99279.31;10396655;28;20085;-59
2022/08/17 01:22:13;;;;;;;8.15;4.00;;;;;;;18.42;53.05;99285.09;10396628;28;20144;-59
2022/08/17 01:27:16;;;;;;;6.07;3.80;;;;;;;18.50;52.51;99282.47;10395613;28;20148;-59
2022/08/17 01:32:21;;;;;;;5.18;3.97;;;;;;;18.45;52.22;99285.59;10395727;28;20099;-59
2022/08/17 01:37:33;;;;;;;6.75;3.95;;;;;;;18.44;52.75;99285.75;10395247;28;20050;-59
2022/08/17 01:42:55;;;;;;;7.10;4.22;;;;;;;18.34;53.40;99300.91;10395507;28;20132;-59
2022/08/17 01:47:57;;;;;;;7.25;4.47;;;;;;;18.01;53.74;99302.47;10394639;28;20062;-59
2022/08/17 01:53:03;;;;;;;6.28;4.30;;;;;;;18.00;54.00;99299.97;10394724;28;20084;-58
2022/08/17 01:58:08;;;;;;;5.82;3.70;;;;;;;18.13;53.75;99303.88;10394655;28;20154;-59
2022/08/17 02:03:11;;;;;;;9.02;4.03;;;;;;;18.23;53.47;99306.47;10394395;28;20650;-59
2022/08/17 02:08:19;;;;;;;5.60;3.90;;;;;;;18.28;53.63;99299.69;10394287;28;20141;-58
2022/08/17 02:13:21;;;;;;;5.55;3.97;;;;;;;18.28;53.49;99290.97;10394243;28;20427;-59
2022/08/17 02:18:24;;;;;;;5.45;3.75;;;;;;;18.25;53.48;99299.19;10394052;28;20084;-58
2022/08/17 02:23:29;;;;;;;6.43;4.00;;;;;;;18.30;53.45;99292.44;10393528;28;20100;-58
2022/08/17 02:28:30;;;;;;;7.95;4.18;;;;;;;18.34;53.28;99299.06;10393314;28;20061;-58
2022/08/17 02:33:33;;;;;;;5.63;4.20;;;;;;;18.31;53.47;99298.56;10393454;28;20115;-59
2022/08/17 02:38:44;;;;;;;4.90;4.32;;;;;;;18.30;53.54;99294.28;10392252;28;20413;-59
2022/08/17 02:43:45;;;;;;;6.65;4.80;;;;;;;17.88;54.34;99294.09;10392884;28;20058;-59
2022/08/17 02:48:47;;;;;;;8.27;3.78;;;;;;;17.83;54.65;99299.03;10392053;28;20061;-58
2022/08/17 02:53:49;;;;;;;5.97;4.40;;;;;;;17.96;54.16;99295.97;10392591;28;20131;-59
2022/08/17 02:58:51;;;;;;;7.00;4.28;;;;;;;18.00;54.26;99292.03;10392159;28;20501;-59
2022/08/17 03:03:53;;;;;;;5.00;3.88;;;;;;;18.10;54.08;99296.25;10392704;28;20563;-59
2022/08/17 03:08:54;;;;;;;5.53;4.13;;;;;;;18.14;53.88;99276.41;10392701;28;20161;-59
2022/08/17 03:13:57;;;;;;;6.70;3.75;;;;;;;18.24;53.38;99284.31;10374895;28;20194;-59
2022/08/17 03:18:59;;;;;;;6.30;3.95;;;;;;;18.18;53.66;99288.34;10392888;28;20141;-59
2022/08/17 03:24:01;;;;;;;7.57;4.20;;;;;;;18.07;53.70;99288.63;10392398;28;20092;-59
2022/08/17 03:29:09;;;;;;;6.57;4.32;;;;;;;18.05;54.15;99295.06;10392573;28;20132;-58
2022/08/17 03:34:11;;;;;;;7.95;4.10;;;;;;;17.92;54.50;99306.03;10390899;28;20161;-59
2022/08/17 03:39:13;;;;;;;5.97;4.00;;;;;;;17.97;54.54;99314.34;10392245;28;20156;-59
2022/08/17 03:44:15;;;;;;;10.10;4.38;;;;;;;17.93;54.67;99304.22;10392282;28;20084;-59
2022/08/17 03:59:58;;;;;;;7.43;4.20;;;;;;;17.92;54.77;99307.84;10392052;28;20678;-59
2022/08/17 04:05:00;;;;;;;6.88;4.43;;;;;;;17.98;54.69;99309.88;10391444;28;20045;-60
2022/08/17 04:10:03;;;;;;;6.20;4.00;;;;;;;17.93;54.85;99309.50;10392945;28;20089;-60
2022/08/17 04:15:05;;;;;;;8.45;4.70;;;;;;;17.76;54.85;99303.25;10399111;28;20115;-59
2022/08/17 04:20:07;;;;;;;6.40;4.30;;;;;;;17.74;55.02;99298.13;10399075;28;20524;-59
2022/08/17 04:25:17;;;;;;;8.25;4.18;;;;;;;17.74;55.55;99302.56;10398462;28;20046;-59
2022/08/17 04:30:18;;;;;;;6.63;4.37;;;;;;;17.80;55.10;99296.66;10398092;28;20081;-59
2022/08/17 04:35:24;;;;;;;6.63;4.15;;;;;;;17.90;55.02;99301.88;10397832;28;20045;-59
2022/08/17 04:45:50;;;;;;;6.25;4.60;;;;;;;17.79;55.45;99292.38;10397763;28;20132;-59
2022/08/17 04:50:57;;;;;;;;;;;;;;;17.54;56.29;99307.19;10397741;28;20539;-60
2022/08/17 04:55:59;;;;;;;5.80;4.10;;;;;;;17.92;55.24;99306.03;10397474;28;19932;-60
2022/08/17 05:01:01;;;;;;;7.35;4.45;;;;;;;18.11;54.73;99308.50;10395918;28;20083;-60
2022/08/17 05:06:04;;;;;;;5.38;4.10;;;;;;;18.28;54.62;99314.78;10397109;28;20046;-60
2022/08/17 05:11:07;;;;;;;7.07;4.25;;;;;;;18.32;54.64;99324.88;10396855;28;20131;-60
2022/08/17 05:16:08;;;;;;;7.13;4.60;;;;;;;18.29;54.80;99324.38;10397183;28;20107;-60
2022/08/17 05:21:11;;;;;;;6.97;4.10;;;;;;;18.27;54.91;99319.25;10395050;28;20081;-60
2022/08/17 05:26:16;;;;;;;4.43;4.00;;;;;;;18.78;54.16;99315.72;10396122;28;20164;-60
2022/08/17 05:31:28;;;;;;;5.90;4.10;;;;;;;19.44;52.52;99324.59;10395844;28;20057;-61
2022/08/17 05:36:30;;;;;;;8.13;4.28;;;;;;;19.55;51.78;99326.13;10395951;28;20132;-60
2022/08/17 05:41:46;;;;;;;5.72;4.00;;;;;;;19.56;51.95;99316.34;10395761;28;20135;-59
2022/08/17 05:46:50;;;;;;;6.70;3.85;;;;;;;19.58;51.74;99306.41;10395506;28;20544;-60
2022/08/17 05:52:04;;;;;;;6.18;3.55;;;;;;;19.17;52.64;99293.06;10395006;28;20077;-60
2022/08/17 05:57:30;;;;;;;7.03;4.22;;;;;;;19.18;53.06;99297.34;10394925;28;20498;-60
2022/08/17 06:02:49;;;;;;;5.63;4.47;;;;;;;19.26;52.14;99289.41;10394576;28;20148;-60
2022/08/17 06:08:13;;;;;;;7.13;4.17;;;;;;;19.40;51.90;99293.25;10394300;28;20053;-60
2022/08/17 06:13:42;;;;;;;6.68;3.63;;;;;;;19.55;51.97;99298.75;10394404;28;20662;-61
2022/08/17 06:18:54;;;;;;;5.97;4.00;;;;;;;19.60;51.93;99307.91;10394342;28;20144;-60
2022/08/17 06:24:05;;;;;;;4.63;3.80;;;;;;;19.88;51.33;99296.00;10393544;28;20085;-60
2022/08/17 06:29:25;;;;;;;5.50;4.30;;;;;;;19.95;50.95;99301.50;10394077;28;20152;-60
2022/08/17 06:34:28;;;;;;;10.63;4.70;;;;;;;20.40;49.93;99301.75;10393400;28;20164;-61
2022/08/17 06:39:42;;;;;;;7.57;4.47;;;;;;;21.08;48.51;99305.56;10393690;28;20049;-60
2022/08/17 06:44:48;;;;;;;7.85;4.13;;;;;;;21.46;47.60;99301.19;10393472;28;20049;-61
2022/08/17 06:50:16;;;;;;;6.00;4.38;;;;;;;21.66;47.08;99299.72;10392818;28;20540;-60
2022/08/17 06:55:45;;;;;;;8.15;4.20;;;;;;;21.73;46.74;99305.19;10393318;28;20096;-60
2022/08/17 07:00:49;;;;;;;7.45;3.90;;;;;;;21.84;46.72;99299.44;10393217;28;20054;-60
2022/08/17 07:06:05;;;;;;;7.30;3.90;;;;;;;21.72;46.66;99304.34;10392616;28;20104;-60
2022/08/17 07:11:11;;;;;;;;;;;;;;;21.42;47.15;99297.25;10393365;28;20154;-60
2022/08/17 07:16:22;;;;;;;5.07;3.88;;;;;;;21.97;46.03;99297.00;10392978;28;19932;-60
2022/08/17 07:21:42;;;;;;;7.43;3.85;;;;;;;22.07;45.81;99305.59;10392902;28;20077;-60
2022/08/17 07:26:48;;;;;;;8.20;3.70;;;;;;;22.14;45.77;99298.56;10374806;28;20446;-60
2022/08/17 07:31:54;;;;;;;7.18;3.88;;;;;;;22.03;45.49;99309.63;10392298;28;20461;-60
2022/08/17 07:37:04;;;;;;;10.77;4.47;;;;;;;22.04;45.25;99297.97;10392547;28;20063;-60
2022/08/17 07:42:05;;;;;;;;;;;;;;;21.34;46.20;99304.44;10391843;28;20049;-60
2022/08/17 07:52:36;;;;;;;10.05;3.88;;;;;;;21.79;45.81;99301.81;10400232;28;20081;-60
2022/08/17 07:57:57;;;;;;;7.70;3.92;;;;;;;21.96;46.25;99321.97;10399584;28;20095;-60
2022/08/17 08:03:13;;;;;;;6.85;4.15;;;;;;;21.88;46.17;99311.41;10400111;28;20136;-60
2022/08/17 08:08:25;;;;;;;6.05;3.95;;;;;;;21.97;46.63;99339.59;10399466;28;20385;-60
2022/08/17 08:13:29;;;;;;;11.73;4.60;;;;;;;21.92;48.63;99349.13;10399603;28;20555;-60
2022/08/17 08:18:38;;;;;;;8.27;4.78;;;;;;;21.72;50.40;99349.59;10398897;28;20146;-60
2022/08/17 08:24:22;;;;;;;9.18;5.00;;;;;;;21.78;50.60;99364.03;10398091;28;20083;-60
2022/08/17 08:29:53;;;;;;;7.70;4.50;;;;;;;21.81;49.46;99353.03;10398129;28;20053;-60
2022/08/17 08:35:25;;;;;;;9.20;4.30;;;;;;;21.92;48.84;99348.13;10398486;28;20276;-60
2022/08/17 08:40:45;;;;;;;8.25;4.50;;;;;;;22.20;48.10;99337.78;10398049;28;20060;-60
2022/08/17 08:45:56;;;;;;;7.78;4.50;;;;;;;22.29;47.68;99336.69;10397920;28;20103;-60
2022/08/17 08:51:21;;;;;;;7.68;4.45;;;;;;;22.91;47.08;99329.25;10397030;28;20556;-60
2022/08/17 08:56:59;;;;;;;8.23;4.03;;;;;;;23.26;45.81;99327.63;10396632;28;20092;-58
2022/08/17 09:03:02;;;;;;;9.43;4.30;;;;;;;23.64;43.38;99334.47;10397790;28;20051;-58
2022/08/17 09:08:10;;;;;;;7.38;4.63;;;;;;;23.74;43.66;99340.31;10428870;28;20081;-58
2022/08/17 09:13:27;;;;;;;10.68;4.75;;;;;;;23.83;43.57;99360.56;10396841;28;20943;-58
2022/08/17 09:18:37;;;;;;;7.80;4.38;;;;;;;23.54;43.34;99355.31;10395807;28;20132;-58
2022/08/17 09:24:01;;;;;;;6.78;4.03;;;;;;;23.62;44.05;99352.50;10396671;28;20083;-58
2022/08/17 09:29:08;;;;;;;6.10;3.90;;;;;;;23.61;43.57;99344.69;10396200;28;20487;-58
2022/08/17 09:34:15;;;;;;;14.20;4.28;;;;;;;23.60;43.69;99327.84;10395818;28;20072;-58
2022/08/17 09:39:31;;;;;;;10.18;4.60;;;;;;;23.65;43.50;99336.13;10395488;28;20049;-58
2022/08/17 09:44:50;;;;;;;14.10;4.40;;;;;;;23.98;43.14;99337.25;10395319;28;20049;-58
2022/08/17 09:50:00;;;;;;;14.13;5.10;;;;;;;24.09;42.96;99333.28;10395225;28;20144;-59
2022/08/17 09:55:04;;;;;;;12.23;4.60;;;;;;;23.85;43.18;99342.50;10394554;28;20123;-59
2022/08/17 10:05:20;;;;;;;12.52;4.05;;;;;;;24.01;43.32;99357.44;10394739;28;20155;-59
2022/08/17 10:10:58;;;;;;;12.80;4.10;;;;;;;24.31;42.67;99350.94;10393434;28;20163;-59
2022/08/17 10:16:15;;;;;;;15.77;4.45;;;;;;;24.43;42.16;99353.94;10393655;28;20409;-59
2022/08/17 10:26:43;;;;;;;14.27;3.78;;;;;;;24.37;42.59;99346.69;10394434;28;20072;-59
2022/08/17 10:32:05;;;;;;;9.27;3.75;;;;;;;23.99;43.65;99362.13;10393917;28;20053;-59
2022/08/17 10:37:40;;;;;;;14.20;4.22;;;;;;;23.96;43.86;99363.34;10390822;28;20049;-60
2022/08/17 10:42:58;;;;;;;19.60;4.57;;;;;;;23.82;45.54;99369.56;10391754;28;20140;-60
2022/08/17 10:48:23;;;;;;;20.27;4.73;;;;;;;23.60;46.80;99365.22;10393157;28;20493;-59
2022/08/17 10:53:49;;;;;;;17.08;4.80;;;;;;;23.31;46.86;99359.91;10392532;28;20434;-59
2022/08/17 10:58:56;;;;;;;16.23;4.80;;;;;;;23.30;49.15;99363.59;10390095;28;20505;-59
2022/08/17 11:04:20;;;;;;;21.25;4.97;;;;;;;23.80;48.63;99355.56;10392854;28;20144;-59
2022/08/17 11:09:46;;;;;;;15.63;4.80;;;;;;;23.86;47.78;99330.78;10393190;28;20051;-59
2022/08/17 11:15:20;;;;;;;12.90;4.68;;;;;;;23.73;49.49;99330.66;10392258;28;20081;-59
2022/08/17 11:20:36;;;;;;;15.38;4.82;;;;;;;24.21;47.54;99342.44;10396727;28;20045;-59
2022/08/17 11:25:43;;;;;;;15.00;4.85;;;;;;;24.99;45.78;99331.47;10401117;28;20884;-59
2022/08/17 11:30:53;;;;;;;15.55;4.50;;;;;;;25.70;45.51;99335.47;10400759;28;20471;-59
2022/08/17 11:36:33;;;;;;;15.52;4.60;;;;;;;26.40;43.62;99333.09;10400799;28;20085;-59
2022/08/17 11:42:16;;;;;;;14.75;3.85;;;;;;;26.46;41.61;99318.88;10388152;28;20054;-59
2022/08/17 11:53:05;;;;;;;6.93;2.80;;;;;;;27.22;36.50;99306.50;10400029;28;20058;-59
2022/08/17 11:58:28;;;;;;;4.03;2.70;;;;;;;27.37;34.10;99312.44;10399579;28;20081;-59
2022/08/17 12:03:30;;;;;;;4.07;2.60;;;;;;;27.62;34.35;99312.50;10399399;28;20073;-59
2022/08/17 12:08:40;;;;;;;5.72;2.33;;;;;;;27.74;33.55;99309.97;10399382;28;20069;-60
2022/08/17 12:13:54;;;;;;;5.22;2.55;;;;;;;28.10;32.02;99294.81;10399526;28;20304;-59
2022/08/17 12:19:01;;;;;;;5.78;2.80;;;;;;;28.69;31.42;99294.28;10398792;28;20318;-60
2022/08/17 12:24:08;;;;;;;8.73;2.80;;;;;;;28.81;30.75;99287.09;10398755;28;20053;-60
2022/08/17 12:29:15;;;;;;;3.38;2.50;;;;;;;28.82;31.05;99286.06;10398166;28;20567;-59
2022/08/17 12:34:41;;;;;;;5.25;2.63;;;;;;;28.69;30.75;99282.69;10397742;28;20802;-60
2022/08/17 12:39:51;;;;;;;7.30;2.80;;;;;;;28.55;30.56;99287.41;10398293;28;20571;-60
2022/08/17 12:44:53;;;;;;;6.15;2.70;;;;;;;28.79;31.00;99283.81;10397758;28;20057;-59
2022/08/17 12:50:06;;;;;;;4.55;2.50;;;;;;;29.62;29.78;99270.59;10397825;28;20050;-60
2022/08/17 12:55:35;;;;;;;5.70;2.72;;;;;;;30.17;28.63;99263.88;10397989;28;20060;-60
2022/08/17 13:00:43;;;;;;;7.97;3.25;;;;;;;30.30;28.64;99260.13;10397453;28;20053;-60
2022/08/17 13:05:51;;;;;;;7.57;2.63;;;;;;;30.30;28.95;99255.56;10397752;28;20076;-60
2022/08/17 13:11:03;;;;;;;10.35;3.00;;;;;;;30.28;28.80;99254.97;10397122;28;20119;-60
2022/08/17 13:16:15;;;;;;;6.18;2.80;;;;;;;30.29;29.47;99253.13;10397198;28;20563;-60
2022/08/17 13:21:26;;;;;;;5.82;3.10;;;;;;;29.79;29.91;99244.59;10396352;28;20406;-60
2022/08/17 13:26:35;;;;;;;6.05;2.95;;;;;;;29.49;29.90;99259.97;10397373;28;20049;-59
2022/08/17 13:31:41;;;;;;;6.63;2.80;;;;;;;29.55;30.31;99261.75;10396552;28;20081;-59
2022/08/17 13:37:35;;;;;;;4.35;2.97;;;;;;;29.27;30.33;99262.34;10396346;28;20053;-59
2022/08/17 13:42:54;;;;;;;6.50;2.60;;;;;;;29.70;29.43;99252.19;10349109;28;20120;-59
2022/08/17 13:48:08;;;;;;;4.63;2.90;;;;;;;29.92;28.80;99230.06;10387531;28;20053;-59
2022/08/17 13:53:19;;;;;;;6.75;3.30;;;;;;;30.15;29.35;99230.94;10394961;28;20053;-59
2022/08/17 13:58:51;;;;;;;5.90;2.90;;;;;;;30.49;28.14;99218.50;10395291;28;20077;-59
2022/08/17 14:03:52;;;;;;;5.20;3.10;;;;;;;30.68;28.22;99211.91;10395602;28;20081;-59
2022/08/17 14:08:54;;;;;;;6.45;2.70;;;;;;;30.84;28.20;99207.63;10395355;28;20057;-59
2022/08/17 14:13:57;;;;;;;5.15;3.20;;;;;;;30.58;28.84;99203.56;10393962;28;20077;-59
2022/08/17 14:18:59;;;;;;;6.47;2.90;;;;;;;30.19;29.57;99215.91;10394544;28;20531;-59
2022/08/17 14:24:00;;;;;;;6.47;3.08;;;;;;;30.46;29.06;99200.09;10394269;28;20093;-59
2022/08/17 14:29:02;;;;;;;12.68;2.90;;;;;;;30.74;28.97;99192.06;10393819;28;20577;-59
2022/08/17 14:34:15;;;;;;;9.20;2.80;;;;;;;31.36;27.94;99182.16;10393489;28;20053;-59
2022/08/17 14:39:19;;;;;;;9.32;3.20;;;;;;;31.14;28.53;99178.53;10392729;28;20045;-59
2022/08/17 14:44:21;;;;;;;8.65;2.95;;;;;;;30.85;28.06;99191.19;10393844;28;20110;-59
2022/08/17 14:49:24;;;;;;;5.93;3.00;;;;;;;30.45;28.76;99193.88;10393312;28;20079;-59
2022/08/17 14:54:26;;;;;;;5.10;2.72;;;;;;;30.00;29.08;99187.44;10391608;28;20133;-59
2022/08/17 14:59:34;;;;;;;;;;;;;;;29.50;29.72;99192.38;10392499;28;20459;-59
2022/08/17 15:04:36;;;;;;;4.78;2.65;;;;;;;29.52;29.85;99181.41;10393194;28;20509;-59
2022/08/17 15:09:45;;;;;;;8.38;3.05;;;;;;;29.27;30.13;99192.31;10393166;28;20053;-59
2022/08/17 15:14:48;;;;;;;9.68;3.10;;;;;;;29.33;30.45;99179.78;10393204;28;20053;-59
2022/08/17 15:19:49;;;;;;;5.03;2.80;;;;;;;29.10;30.62;99185.91;10392869;28;20053;-59
2022/08/17 15:24:52;;;;;;;5.10;2.90;;;;;;;29.12;30.80;99194.59;10392883;28;20076;-59
2022/08/17 15:29:54;;;;;;;5.53;2.80;;;;;;;29.32;30.20;99180.81;10392871;28;20050;-59
2022/08/17 15:34:59;;;;;;;5.57;2.90;;;;;;;29.80;29.72;99185.06;10391085;28;20052;-59
2022/08/17 15:40:00;;;;;;;4.82;2.45;;;;;;;29.82;29.59;99179.44;10392626;28;20041;-59
2022/08/17 15:45:06;;;;;;;7.13;2.70;;;;;;;29.70;29.44;99173.22;10392222;28;20111;-59
2022/08/17 15:50:08;;;;;;;5.90;2.72;;;;;;;29.32;29.82;99191.59;10391195;28;20143;-59
2022/08/17 15:55:13;;;;;;;7.18;2.78;;;;;;;29.36;29.51;99179.34;10392212;28;20092;-59
2022/08/17 16:00:16;;;;;;;5.95;2.63;;;;;;;29.83;28.32;99183.75;10391778;28;20134;-59
2022/08/17 16:05:20;;;;;;;5.57;2.78;;;;;;;30.25;28.14;99161.06;10392812;28;20150;-59
2022/08/17 16:10:25;;;;;;;4.97;2.50;;;;;;;30.63;27.83;99155.94;10399271;28;20063;-59
2022/08/17 16:15:36;;;;;;;5.55;2.58;;;;;;;30.97;27.18;99154.19;10398997;28;20417;-59
2022/08/17 16:20:38;;;;;;;4.47;2.50;;;;;;;31.09;27.03;99160.34;10399068;28;20562;-59
2022/08/17 16:25:44;;;;;;;5.07;2.47;;;;;;;31.47;26.93;99159.66;10398910;28;20680;-59
2022/08/17 16:30:54;;;;;;;7.88;2.88;;;;;;;31.71;26.54;99161.16;10398617;28;20092;-59
2022/08/17 16:35:56;;;;;;;4.60;2.70;;;;;;;31.78;25.51;99159.09;10398499;28;20100;-59
2022/08/17 16:40:58;;;;;;;5.93;2.60;;;;;;;31.71;25.53;99147.66;10397193;28;20050;-59
2022/08/17 16:46:01;;;;;;;5.15;2.90;;;;;;;31.78;25.70;99156.41;10397914;28;20080;-59
2022/08/17 16:51:03;;;;;;;7.70;3.00;;;;;;;31.68;25.60;99169.75;10397219;28;20579;-59
2022/08/17 16:56:06;;;;;;;6.95;2.80;;;;;;;31.41;26.23;99171.47;10397537;28;20053;-59
2022/08/17 17:01:07;;;;;;;7.82;3.10;;;;;;;31.13;27.00;99172.31;10397765;28;20142;-59
2022/08/17 17:06:31;;;;;;;9.65;3.42;;;;;;;30.89;27.11;99178.84;10397589;28;20390;-59
2022/08/17 17:11:45;;;;;;;7.82;3.50;;;;;;;30.68;27.85;99182.22;10396889;28;20405;-59
2022/08/17 17:17:36;;;;;;;8.75;3.70;;;;;;;30.43;28.45;99184.34;10396487;28;20057;-59
2022/08/17 17:22:56;;;;;;;11.98;4.10;;;;;;;30.32;28.80;99188.69;10350262;28;20136;-59
2022/08/17 17:28:06;;;;;;;9.73;3.72;;;;;;;30.20;28.78;99192.47;10390407;28;20115;-59
2022/08/17 17:33:13;;;;;;;8.60;3.75;;;;;;;30.21;28.35;99192.25;10396137;28;20057;-59
2022/08/17 17:38:27;;;;;;;8.07;3.88;;;;;;;30.22;28.83;99201.97;10395930;28;20142;-58
2022/08/17 17:43:30;;;;;;;8.40;4.85;;;;;;;30.12;29.90;99209.00;10394766;28;20111;-59
2022/08/17 17:48:41;;;;;;;10.13;5.50;;;;;;;29.62;31.10;99208.59;10395231;28;20490;-59
2022/08/17 17:54:20;;;;;;;11.73;5.63;;;;;;;29.46;31.67;99220.03;10394692;28;20237;-59
2022/08/17 17:59:43;;;;;;;10.10;5.78;;;;;;;29.23;32.43;99231.53;10395009;28;20088;-59
2022/08/17 18:04:59;;;;;;;11.07;6.75;;;;;;;28.94;32.82;99233.16;10394508;28;20715;-59
2022/08/17 18:10:26;;;;;;;11.02;6.65;;;;;;;28.66;33.23;99232.03;10394574;28;20484;-59
2022/08/17 18:15:49;;;;;;;14.82;6.55;;;;;;;28.33;34.27;99227.00;10394312;28;20049;-59
2022/08/17 18:21:03;;;;;;;9.43;7.07;;;;;;;28.04;34.56;99233.03;10394345;28;20045;-59
2022/08/17 18:26:05;;;;;;;10.88;6.80;;;;;;;27.67;35.13;99256.25;10394010;28;20408;-59
2022/08/17 18:31:16;;;;;;;10.38;7.10;;;;;;;27.31;35.92;99264.13;10393486;28;20152;-58
2022/08/17 18:36:28;;;;;;;11.07;7.03;;;;;;;27.07;36.39;99271.03;10393265;28;20135;-59
2022/08/17 18:41:39;;;;;;;11.73;7.38;;;;;;;26.84;37.06;99280.63;10393939;28;20049;-59
2022/08/17 18:46:41;;;;;;;15.65;7.15;;;;;;;26.64;37.23;99297.63;10393107;28;20080;-58
2022/08/17 18:51:44;;;;;;;9.15;7.18;;;;;;;26.41;37.74;99312.44;10393219;28;20084;-59
2022/08/17 18:56:57;;;;;;;10.95;7.35;;;;;;;25.97;38.92;99315.78;10392978;28;20148;-59
2022/08/17 19:02:16;;;;;;;12.70;7.05;;;;;;;25.60;39.55;99313.63;10392883;28;20107;-59
2022/08/17 19:07:43;;;;;;;8.88;7.32;;;;;;;25.46;40.24;99315.44;10391531;28;20513;-59
2022/08/17 19:12:45;;;;;;;11.02;7.60;;;;;;;25.34;40.59;99318.91;10393554;28;20049;-59
2022/08/17 19:17:58;;;;;;;12.00;7.25;;;;;;;25.18;41.06;99327.25;10392628;28;20045;-59
2022/08/17 19:23:16;;;;;;;10.60;7.70;;;;;;;25.12;41.60;99346.78;10392861;28;20115;-58
2022/08/17 19:28:25;;;;;;;12.20;8.05;;;;;;;24.98;41.79;99360.09;10392290;28;20513;-59
2022/08/17 19:33:28;;;;;;;14.52;8.30;;;;;;;24.88;41.76;99356.09;10392101;28;20140;-59
2022/08/17 19:38:50;;;;;;;13.07;7.53;;;;;;;24.86;42.10;99361.66;10392006;28;20567;-59
2022/08/17 19:44:11;;;;;;;13.25;8.25;;;;;;;24.82;42.27;99359.56;10400136;28;20088;-58
2022/08/17 19:49:27;;;;;;;11.15;7.88;;;;;;;24.66;42.53;99363.34;10400694;28;20108;-59
2022/08/17 19:55:06;;;;;;;10.38;7.80;;;;;;;24.57;42.82;99377.06;10399497;28;20109;-59
2022/08/17 20:00:11;;;;;;;15.18;8.00;;;;;;;24.58;42.77;99390.25;10399976;28;20081;-59
2022/08/17 20:05:22;;;;;;;12.68;7.70;;;;;;;24.52;42.91;99387.50;10399216;28;20100;-58
2022/08/17 20:10:53;;;;;;;13.30;8.23;;;;;;;24.37;43.00;99386.78;10399003;28;20439;-59
2022/08/17 20:15:55;;;;;;;12.32;8.25;;;;;;;24.15;43.47;99380.59;10399262;28;20053;-59
2022/08/17 20:21:22;;;;;;;14.93;8.30;;;;;;;24.01;43.98;99384.97;10397522;28;20099;-59
2022/08/17 20:26:35;;;;;;;18.48;7.68;;;;;;;24.11;43.69;99390.88;10398727;28;20133;-59
2022/08/17 20:31:50;;;;;;;14.02;7.80;;;;;;;24.09;43.59;99392.06;10398328;28;20513;-59
2022/08/17 20:37:00;;;;;;;11.68;8.20;;;;;;;23.72;44.43;99395.75;10398640;28;20055;-59
2022/08/17 20:42:26;;;;;;;12.70;8.25;;;;;;;23.69;44.60;99392.63;10398663;28;20080;-59
2022/08/17 20:47:39;;;;;;;10.88;7.90;;;;;;;23.63;44.93;99386.22;10397826;28;20085;-59
2022/08/17 20:53:04;;;;;;;15.82;7.93;;;;;;;23.65;44.56;99392.19;10396436;28;20104;-60
2022/08/17 20:58:22;;;;;;;13.05;7.80;;;;;;;23.71;44.70;99395.94;10397248;28;20143;-59
2022/08/17 21:03:25;;;;;;;9.10;7.57;;;;;;;23.71;44.56;99398.63;10396838;28;20100;-59
2022/08/17 21:08:39;;;;;;;11.98;7.93;;;;;;;23.63;45.17;99407.56;10396962;28;20073;-59
2022/08/17 21:14:07;;;;;;;12.02;8.02;;;;;;;23.57;45.22;99403.00;10396600;28;20123;-59
2022/08/17 21:19:33;;;;;;;10.32;7.90;;;;;;;23.38;45.69;99396.34;10396571;28;20083;-59
2022/08/17 21:25:25;;;;;;;11.35;7.78;;;;;;;23.25;45.95;99420.19;10396396;28;20479;-59
2022/08/17 21:30:27;;;;;;;11.73;8.10;;;;;;;23.20;46.14;99432.44;10395909;28;20089;-59
2022/08/17 21:35:49;;;;;;;13.02;8.25;;;;;;;23.02;46.42;99435.47;10396213;28;20056;-59
2022/08/17 21:40:52;;;;;;;12.13;8.02;;;;;;;23.04;46.48;99444.13;10396195;28;20144;-59
2022/08/17 21:45:59;;;;;;;13.18;8.45;;;;;;;22.96;46.91;99452.22;10395089;28;20107;-59
2022/08/17 21:51:22;;;;;;;10.70;7.80;;;;;;;22.97;46.79;99450.34;10394125;28;20076;-59
2022/08/17 21:56:33;;;;;;;8.75;7.63;;;;;;;23.07;46.67;99446.41;10394926;28;20140;-60
2022/08/17 22:01:39;;;;;;;11.25;8.63;;;;;;;22.97;46.75;99442.34;10394988;28;20145;-59
2022/08/17 22:06:43;;;;;;;13.25;8.57;;;;;;;22.97;46.87;99448.50;10393307;28;20045;-59
2022/08/17 22:12:03;;;;;;;9.23;7.85;;;;;;;23.00;46.79;99444.66;10394354;28;20088;-59
2022/08/17 22:17:15;;;;;;;10.32;8.20;;;;;;;22.88;47.10;99448.78;10394388;28;20442;-59
2022/08/17 22:22:25;;;;;;;10.52;8.23;;;;;;;22.87;47.26;99449.78;10394119;28;20078;-59
2022/08/17 22:27:55;;;;;;;9.23;7.85;;;;;;;22.82;46.94;99450.31;10393813;28;20069;-59
2022/08/17 22:32:58;;;;;;;11.45;8.35;;;;;;;22.88;47.00;99454.13;10393847;28;20144;-59
2022/08/17 22:38:18;;;;;;;14.57;8.25;;;;;;;22.78;47.37;99459.69;10393695;28;20141;-59
2022/08/17 22:43:24;;;;;;;9.82;8.15;;;;;;;22.74;47.48;99468.25;10393301;28;20100;-59
2022/08/17 22:48:29;;;;;;;10.60;8.35;;;;;;;22.62;47.69;99478.47;10392995;28;20095;-59
2022/08/17 23:04:35;;;;;;;10.45;8.40;;;;;;;22.30;48.75;99479.56;10393307;28;20053;-59
2022/08/17 23:09:37;;;;;;;11.02;8.23;;;;;;;22.26;48.73;99486.25;10393197;28;20130;-59
2022/08/17 23:14:44;;;;;;;12.70;8.40;;;;;;;22.24;48.75;99493.59;10392100;28;20144;-59
2022/08/17 23:19:46;;;;;;;12.10;9.30;;;;;;;22.15;48.91;99478.66;10392594;28;20138;-59
2022/08/17 23:24:49;;;;;;;11.93;8.27;;;;;;;22.07;49.02;99492.00;10391945;28;20555;-59
2022/08/17 23:29:51;;;;;;;12.02;8.73;;;;;;;22.01;49.34;99489.19;10392778;28;20137;-59
2022/08/17 23:34:52;;;;;;;11.95;9.07;;;;;;;22.02;49.23;99483.72;10392681;28;20076;-59
2022/08/17 23:39:54;;;;;;;9.38;8.38;;;;;;;22.03;49.08;99487.16;10392292;28;20560;-59
2022/08/17 23:44:56;;;;;;;10.52;9.27;;;;;;;21.87;49.91;99498.75;10391918;28;20053;-59
2022/08/17 23:49:58;;;;;;;10.27;9.13;;;;;;;21.79;49.88;99502.28;10392151;28;20077;-59
2022/08/17 23:55:04;;;;;;;11.73;9.38;;;;;;;21.64;50.46;99496.03;10391610;28;20061;-59
